sensor_id;sensor_type;location;lat;lon;timestamp;temperature;humidity
31733;DHT22;18312;51.486;7.144;2023-08-24T00:00:50;17.20;99.90
31733;DHT22;18312;51.486;7.144;2023-08-24T00:03:23;17.20;99.90
31733;DHT22;18312;51.486;7.144;2023-08-24T00:05:50;17.20;99.90
31733;DHT22;18312;51.486;7.144;2023-08-24T00:08:17;17.10;99.90
31733;DHT22;18312;51.486;7.144;2023-08-24T00:10:44;17.10;99.90
31733;DHT22;18312;51.486;7.144;2023-08-24T00:13:12;17.20;99.90
31733;DHT22;18312;51.486;7.144;2023-08-24T00:15:50;17.20;99.90
31733;DHT22;18312;51.486;7.144;2023-08-24T00:18:18;17.10;99.90
31733;DHT22;18312;51.486;7.144;2023-08-24T00:20:47;17.20;99.90
31733;DHT22;18312;51.486;7.144;2023-08-24T00:23:14;17.20;99.90
31733;DHT22;18312;51.486;7.144;2023-08-24T00:25:41;17.20;99.90
31733;DHT22;18312;51.486;7.144;2023-08-24T00:28:07;17.10;99.90
31733;DHT22;18312;51.486;7.144;2023-08-24T00:30:34;17.00;99.90
31733;DHT22;18312;51.486;7.144;2023-08-24T00:33:03;16.90;99.90
31733;DHT22;18312;51.486;7.144;2023-08-24T00:35:30;16.80;99.90
31733;DHT22;18312;51.486;7.144;2023-08-24T00:37:57;16.80;99.90
31733;DHT22;18312;51.486;7.144;2023-08-24T00:40:24;16.90;99.90
31733;DHT22;18312;51.486;7.144;2023-08-24T00:42:52;16.90;99.90
31733;DHT22;18312;51.486;7.144;2023-08-24T00:45:18;16.90;99.90
31733;DHT22;18312;51.486;7.144;2023-08-24T00:47:47;17.00;99.90
31733;DHT22;18312;51.486;7.144;2023-08-24T00:50:16;17.00;99.90
31733;DHT22;18312;51.486;7.144;2023-08-24T00:52:51;17.00;99.90
31733;DHT22;18312;51.486;7.144;2023-08-24T00:55:19;16.80;99.90
31733;DHT22;18312;51.486;7.144;2023-08-24T00:57:47;16.80;99.90
31733;DHT22;18312;51.486;7.144;2023-08-24T01:00:15;16.60;99.90
31733;DHT22;18312;51.486;7.144;2023-08-24T01:02:42;16.60;99.90
31733;DHT22;18312;51.486;7.144;2023-08-24T01:05:09;16.70;99.90
31733;DHT22;18312;51.486;7.144;2023-08-24T01:07:39;16.70;99.90
31733;DHT22;18312;51.486;7.144;2023-08-24T01:10:08;16.70;99.90
31733;DHT22;18312;51.486;7.144;2023-08-24T01:12:47;16.70;99.90
31733;DHT22;18312;51.486;7.144;2023-08-24T01:15:18;16.70;99.90
31733;DHT22;18312;51.486;7.144;2023-08-24T01:17:46;16.60;99.90
31733;DHT22;18312;51.486;7.144;2023-08-24T01:20:14;16.50;99.90
31733;DHT22;18312;51.486;7.144;2023-08-24T01:22:47;16.50;99.90
31733;DHT22;18312;51.486;7.144;2023-08-24T01:25:17;16.60;99.90
31733;DHT22;18312;51.486;7.144;2023-08-24T01:27:50;16.60;99.90
31733;DHT22;18312;51.486;7.144;2023-08-24T01:30:18;16.60;99.90
31733;DHT22;18312;51.486;7.144;2023-08-24T01:32:45;16.60;99.90
31733;DHT22;18312;51.486;7.144;2023-08-24T01:35:12;16.50;99.90
31733;DHT22;18312;51.486;7.144;2023-08-24T01:37:39;16.50;99.90
31733;DHT22;18312;51.486;7.144;2023-08-24T01:40:12;16.40;99.90
31733;DHT22;18312;51.486;7.144;2023-08-24T01:42:45;16.50;99.90
31733;DHT22;18312;51.486;7.144;2023-08-24T01:45:17;16.50;99.90
31733;DHT22;18312;51.486;7.144;2023-08-24T01:47:46;16.50;99.90
31733;DHT22;18312;51.486;7.144;2023-08-24T01:50:13;16.60;99.90
31733;DHT22;18312;51.486;7.144;2023-08-24T01:52:41;16.60;99.90
31733;DHT22;18312;51.486;7.144;2023-08-24T01:55:08;16.50;99.90
31733;DHT22;18312;51.486;7.144;2023-08-24T01:57:35;16.40;99.90
31733;DHT22;18312;51.486;7.144;2023-08-24T02:00:03;16.40;99.90
31733;DHT22;18312;51.486;7.144;2023-08-24T02:02:34;16.30;99.90
31733;DHT22;18312;51.486;7.144;2023-08-24T02:05:01;16.30;99.90
31733;DHT22;18312;51.486;7.144;2023-08-24T02:07:29;16.30;99.90
31733;DHT22;18312;51.486;7.144;2023-08-24T02:09:55;16.40;99.90
31733;DHT22;18312;51.486;7.144;2023-08-24T02:12:22;16.40;99.90
31733;DHT22;18312;51.486;7.144;2023-08-24T02:14:49;16.40;99.90
31733;DHT22;18312;51.486;7.144;2023-08-24T02:17:16;16.50;99.90
31733;DHT22;18312;51.486;7.144;2023-08-24T02:19:44;16.40;99.90
31733;DHT22;18312;51.486;7.144;2023-08-24T02:22:11;16.30;99.90
31733;DHT22;18312;51.486;7.144;2023-08-24T02:24:38;16.30;99.90
31733;DHT22;18312;51.486;7.144;2023-08-24T02:27:05;16.20;99.90
31733;DHT22;18312;51.486;7.144;2023-08-24T02:29:33;16.20;99.90
31733;DHT22;18312;51.486;7.144;2023-08-24T02:31:59;16.20;99.90
31733;DHT22;18312;51.486;7.144;2023-08-24T02:34:26;16.20;99.90
31733;DHT22;18312;51.486;7.144;2023-08-24T02:36:56;16.20;99.90
31733;DHT22;18312;51.486;7.144;2023-08-24T02:39:22;16.10;99.90
31733;DHT22;18312;51.486;7.144;2023-08-24T02:41:49;16.20;99.90
31733;DHT22;18312;51.486;7.144;2023-08-24T02:44:16;16.30;99.90
31733;DHT22;18312;51.486;7.144;2023-08-24T02:46:44;16.30;99.90
31733;DHT22;18312;51.486;7.144;2023-08-24T02:49:12;16.20;99.90
31733;DHT22;18312;51.486;7.144;2023-08-24T02:51:39;16.00;99.90
31733;DHT22;18312;51.486;7.144;2023-08-24T02:54:07;16.00;99.90
31733;DHT22;18312;51.486;7.144;2023-08-24T02:56:34;16.10;99.90
31733;DHT22;18312;51.486;7.144;2023-08-24T02:59:01;16.10;99.90
31733;DHT22;18312;51.486;7.144;2023-08-24T03:01:28;16.10;99.90
31733;DHT22;18312;51.486;7.144;2023-08-24T03:03:55;16.20;99.90
31733;DHT22;18312;51.486;7.144;2023-08-24T03:06:22;16.20;99.90
31733;DHT22;18312;51.486;7.144;2023-08-24T03:08:49;16.10;99.90
31733;DHT22;18312;51.486;7.144;2023-08-24T03:11:18;16.20;99.90
31733;DHT22;18312;51.486;7.144;2023-08-24T03:13:44;16.20;99.90
31733;DHT22;18312;51.486;7.144;2023-08-24T03:16:11;16.20;99.90
31733;DHT22;18312;51.486;7.144;2023-08-24T03:18:38;16.10;99.90
31733;DHT22;18312;51.486;7.144;2023-08-24T03:21:05;16.20;99.90
31733;DHT22;18312;51.486;7.144;2023-08-24T03:23:32;16.30;99.90
31733;DHT22;18312;51.486;7.144;2023-08-24T03:25:59;16.30;99.90
31733;DHT22;18312;51.486;7.144;2023-08-24T03:28:27;16.30;99.90
31733;DHT22;18312;51.486;7.144;2023-08-24T03:30:55;16.30;99.90
31733;DHT22;18312;51.486;7.144;2023-08-24T03:33:21;16.30;99.90
31733;DHT22;18312;51.486;7.144;2023-08-24T03:35:48;16.30;99.90
31733;DHT22;18312;51.486;7.144;2023-08-24T03:38:15;16.30;99.90
31733;DHT22;18312;51.486;7.144;2023-08-24T03:40:48;16.30;99.90
31733;DHT22;18312;51.486;7.144;2023-08-24T03:43:15;16.40;99.90
31733;DHT22;18312;51.486;7.144;2023-08-24T03:45:43;16.40;99.90
31733;DHT22;18312;51.486;7.144;2023-08-24T03:48:10;16.40;99.90
31733;DHT22;18312;51.486;7.144;2023-08-24T03:50:37;16.40;99.90
31733;DHT22;18312;51.486;7.144;2023-08-24T03:53:04;16.40;99.90
31733;DHT22;18312;51.486;7.144;2023-08-24T03:55:31;16.40;99.90
31733;DHT22;18312;51.486;7.144;2023-08-24T03:57:58;16.40;99.90
31733;DHT22;18312;51.486;7.144;2023-08-24T04:00:25;16.50;99.90
31733;DHT22;18312;51.486;7.144;2023-08-24T04:02:53;16.50;99.90
31733;DHT22;18312;51.486;7.144;2023-08-24T04:05:20;16.50;99.90
31733;DHT22;18312;51.486;7.144;2023-08-24T04:07:47;16.60;99.90
31733;DHT22;18312;51.486;7.144;2023-08-24T04:10:14;16.60;99.90
31733;DHT22;18312;51.486;7.144;2023-08-24T04:12:40;16.60;99.90
31733;DHT22;18312;51.486;7.144;2023-08-24T04:15:08;16.70;99.90
31733;DHT22;18312;51.486;7.144;2023-08-24T04:17:35;16.80;99.90
31733;DHT22;18312;51.486;7.144;2023-08-24T04:20:04;16.90;99.90
31733;DHT22;18312;51.486;7.144;2023-08-24T04:22:32;17.00;99.90
31733;DHT22;18312;51.486;7.144;2023-08-24T04:24:58;17.00;99.90
31733;DHT22;18312;51.486;7.144;2023-08-24T04:27:25;17.00;99.90
31733;DHT22;18312;51.486;7.144;2023-08-24T04:29:52;17.10;99.90
31733;DHT22;18312;51.486;7.144;2023-08-24T04:32:19;17.10;99.90
31733;DHT22;18312;51.486;7.144;2023-08-24T04:34:45;17.10;99.90
31733;DHT22;18312;51.486;7.144;2023-08-24T04:37:14;17.10;99.90
31733;DHT22;18312;51.486;7.144;2023-08-24T04:39:40;17.10;99.90
31733;DHT22;18312;51.486;7.144;2023-08-24T04:42:08;17.00;99.90
31733;DHT22;18312;51.486;7.144;2023-08-24T04:44:35;17.00;99.90
31733;DHT22;18312;51.486;7.144;2023-08-24T04:47:02;17.00;99.90
31733;DHT22;18312;51.486;7.144;2023-08-24T04:49:30;17.00;99.90
31733;DHT22;18312;51.486;7.144;2023-08-24T04:51:56;17.10;99.90
31733;DHT22;18312;51.486;7.144;2023-08-24T04:54:25;17.10;99.90
31733;DHT22;18312;51.486;7.144;2023-08-24T04:56:56;17.20;99.90
31733;DHT22;18312;51.486;7.144;2023-08-24T04:59:23;17.20;99.90
31733;DHT22;18312;51.486;7.144;2023-08-24T05:01:50;17.20;99.90
31733;DHT22;18312;51.486;7.144;2023-08-24T05:04:17;17.20;99.90
31733;DHT22;18312;51.486;7.144;2023-08-24T05:06:43;17.20;99.90
31733;DHT22;18312;51.486;7.144;2023-08-24T05:09:10;17.30;99.90
31733;DHT22;18312;51.486;7.144;2023-08-24T05:11:38;17.30;99.90
31733;DHT22;18312;51.486;7.144;2023-08-24T05:14:05;17.30;99.90
31733;DHT22;18312;51.486;7.144;2023-08-24T05:16:36;17.40;99.90
31733;DHT22;18312;51.486;7.144;2023-08-24T05:19:02;17.40;99.90
31733;DHT22;18312;51.486;7.144;2023-08-24T05:21:30;17.50;99.90
31733;DHT22;18312;51.486;7.144;2023-08-24T05:23:57;17.50;99.90
31733;DHT22;18312;51.486;7.144;2023-08-24T05:26:23;17.60;99.90
31733;DHT22;18312;51.486;7.144;2023-08-24T05:28:52;17.70;99.90
31733;DHT22;18312;51.486;7.144;2023-08-24T05:31:19;17.70;99.90
31733;DHT22;18312;51.486;7.144;2023-08-24T05:33:46;17.80;99.90
31733;DHT22;18312;51.486;7.144;2023-08-24T05:36:13;17.80;99.90
31733;DHT22;18312;51.486;7.144;2023-08-24T05:38:40;17.90;99.90
31733;DHT22;18312;51.486;7.144;2023-08-24T05:41:11;18.00;99.90
31733;DHT22;18312;51.486;7.144;2023-08-24T05:43:38;18.10;99.90
31733;DHT22;18312;51.486;7.144;2023-08-24T05:46:06;18.10;99.90
31733;DHT22;18312;51.486;7.144;2023-08-24T05:48:33;18.10;99.90
31733;DHT22;18312;51.486;7.144;2023-08-24T05:51:00;18.20;99.90
31733;DHT22;18312;51.486;7.144;2023-08-24T05:53:26;18.20;99.90
31733;DHT22;18312;51.486;7.144;2023-08-24T05:55:57;18.30;99.90
31733;DHT22;18312;51.486;7.144;2023-08-24T05:58:24;18.40;99.90
31733;DHT22;18312;51.486;7.144;2023-08-24T06:00:56;18.40;99.90
31733;DHT22;18312;51.486;7.144;2023-08-24T06:03:24;18.40;99.90
31733;DHT22;18312;51.486;7.144;2023-08-24T06:05:51;18.40;99.90
31733;DHT22;18312;51.486;7.144;2023-08-24T06:08:18;18.40;99.90
31733;DHT22;18312;51.486;7.144;2023-08-24T06:10:45;18.50;99.90
31733;DHT22;18312;51.486;7.144;2023-08-24T06:13:12;18.60;99.90
31733;DHT22;18312;51.486;7.144;2023-08-24T06:15:39;18.60;99.90
31733;DHT22;18312;51.486;7.144;2023-08-24T06:18:06;18.50;99.90
31733;DHT22;18312;51.486;7.144;2023-08-24T06:20:34;18.60;99.90
31733;DHT22;18312;51.486;7.144;2023-08-24T06:23:01;18.80;99.90
31733;DHT22;18312;51.486;7.144;2023-08-24T06:25:28;18.90;99.90
31733;DHT22;18312;51.486;7.144;2023-08-24T06:27:54;18.90;99.90
31733;DHT22;18312;51.486;7.144;2023-08-24T06:30:21;19.00;99.90
31733;DHT22;18312;51.486;7.144;2023-08-24T06:32:48;19.10;99.90
31733;DHT22;18312;51.486;7.144;2023-08-24T06:35:15;19.20;99.90
31733;DHT22;18312;51.486;7.144;2023-08-24T06:37:43;19.20;99.90
31733;DHT22;18312;51.486;7.144;2023-08-24T06:40:11;19.30;99.90
31733;DHT22;18312;51.486;7.144;2023-08-24T06:42:38;19.40;99.90
31733;DHT22;18312;51.486;7.144;2023-08-24T06:45:06;19.50;99.90
31733;DHT22;18312;51.486;7.144;2023-08-24T06:47:35;19.50;99.90
31733;DHT22;18312;51.486;7.144;2023-08-24T06:50:02;19.50;99.90
31733;DHT22;18312;51.486;7.144;2023-08-24T06:52:29;19.60;99.90
31733;DHT22;18312;51.486;7.144;2023-08-24T06:54:57;19.80;99.90
31733;DHT22;18312;51.486;7.144;2023-08-24T06:57:24;20.00;99.90
31733;DHT22;18312;51.486;7.144;2023-08-24T06:59:51;20.00;99.90
31733;DHT22;18312;51.486;7.144;2023-08-24T07:02:18;20.10;99.90
31733;DHT22;18312;51.486;7.144;2023-08-24T07:04:44;20.10;99.90
31733;DHT22;18312;51.486;7.144;2023-08-24T07:07:11;20.20;99.90
31733;DHT22;18312;51.486;7.144;2023-08-24T07:09:38;20.30;99.90
31733;DHT22;18312;51.486;7.144;2023-08-24T07:12:07;20.70;99.90
31733;DHT22;18312;51.486;7.144;2023-08-24T07:14:35;20.70;99.90
31733;DHT22;18312;51.486;7.144;2023-08-24T07:17:02;20.70;99.90
31733;DHT22;18312;51.486;7.144;2023-08-24T07:19:29;20.60;99.90
31733;DHT22;18312;51.486;7.144;2023-08-24T07:21:56;20.60;99.90
31733;DHT22;18312;51.486;7.144;2023-08-24T07:24:23;20.80;99.90
31733;DHT22;18312;51.486;7.144;2023-08-24T07:26:52;20.80;99.90
31733;DHT22;18312;51.486;7.144;2023-08-24T07:29:20;20.90;99.90
31733;DHT22;18312;51.486;7.144;2023-08-24T07:31:47;21.00;99.90
31733;DHT22;18312;51.486;7.144;2023-08-24T07:34:14;21.10;99.90
31733;DHT22;18312;51.486;7.144;2023-08-24T07:36:41;21.20;99.90
31733;DHT22;18312;51.486;7.144;2023-08-24T07:39:10;21.40;99.90
31733;DHT22;18312;51.486;7.144;2023-08-24T07:41:37;21.30;99.90
31733;DHT22;18312;51.486;7.144;2023-08-24T07:44:04;21.50;99.90
31733;DHT22;18312;51.486;7.144;2023-08-24T07:46:32;21.70;99.90
31733;DHT22;18312;51.486;7.144;2023-08-24T07:48:59;21.80;99.90
31733;DHT22;18312;51.486;7.144;2023-08-24T07:51:26;21.80;99.90
31733;DHT22;18312;51.486;7.144;2023-08-24T07:53:53;21.90;99.90
31733;DHT22;18312;51.486;7.144;2023-08-24T07:56:20;22.00;99.90
31733;DHT22;18312;51.486;7.144;2023-08-24T07:58:48;22.00;99.90
31733;DHT22;18312;51.486;7.144;2023-08-24T08:01:15;22.10;99.90
31733;DHT22;18312;51.486;7.144;2023-08-24T08:03:43;22.20;99.90
31733;DHT22;18312;51.486;7.144;2023-08-24T08:06:10;22.30;99.90
31733;DHT22;18312;51.486;7.144;2023-08-24T08:08:37;22.40;99.90
31733;DHT22;18312;51.486;7.144;2023-08-24T08:11:04;22.60;99.90
31733;DHT22;18312;51.486;7.144;2023-08-24T08:13:31;22.70;99.90
31733;DHT22;18312;51.486;7.144;2023-08-24T08:16:02;22.90;99.90
31733;DHT22;18312;51.486;7.144;2023-08-24T08:18:29;23.10;99.90
31733;DHT22;18312;51.486;7.144;2023-08-24T08:20:58;23.30;99.90
31733;DHT22;18312;51.486;7.144;2023-08-24T08:23:25;23.30;99.90
31733;DHT22;18312;51.486;7.144;2023-08-24T08:25:51;23.30;99.90
31733;DHT22;18312;51.486;7.144;2023-08-24T08:28:33;23.50;99.90
31733;DHT22;18312;51.486;7.144;2023-08-24T08:31:03;23.60;99.90
31733;DHT22;18312;51.486;7.144;2023-08-24T08:33:30;23.70;99.90
31733;DHT22;18312;51.486;7.144;2023-08-24T08:35:59;23.80;99.90
31733;DHT22;18312;51.486;7.144;2023-08-24T08:38:26;24.10;99.90
31733;DHT22;18312;51.486;7.144;2023-08-24T08:40:54;24.10;99.90
31733;DHT22;18312;51.486;7.144;2023-08-24T08:43:22;24.30;99.90
31733;DHT22;18312;51.486;7.144;2023-08-24T08:45:49;24.50;99.90
31733;DHT22;18312;51.486;7.144;2023-08-24T08:48:18;24.60;99.90
31733;DHT22;18312;51.486;7.144;2023-08-24T08:50:46;24.70;99.90
31733;DHT22;18312;51.486;7.144;2023-08-24T08:53:16;24.70;99.90
31733;DHT22;18312;51.486;7.144;2023-08-24T08:55:43;25.10;99.90
31733;DHT22;18312;51.486;7.144;2023-08-24T08:58:11;25.10;99.90
31733;DHT22;18312;51.486;7.144;2023-08-24T09:00:39;25.40;99.90
31733;DHT22;18312;51.486;7.144;2023-08-24T09:03:07;25.30;99.90
31733;DHT22;18312;51.486;7.144;2023-08-24T09:05:36;25.40;99.90
31733;DHT22;18312;51.486;7.144;2023-08-24T09:08:05;25.60;99.90
31733;DHT22;18312;51.486;7.144;2023-08-24T09:10:33;25.70;99.30
31733;DHT22;18312;51.486;7.144;2023-08-24T09:13:00;25.70;98.50
31733;DHT22;18312;51.486;7.144;2023-08-24T09:15:27;25.90;99.10
31733;DHT22;18312;51.486;7.144;2023-08-24T09:17:54;26.00;98.50
31733;DHT22;18312;51.486;7.144;2023-08-24T09:20:21;26.20;98.50
31733;DHT22;18312;51.486;7.144;2023-08-24T09:22:48;26.30;98.70
31733;DHT22;18312;51.486;7.144;2023-08-24T09:25:16;26.60;98.70
31733;DHT22;18312;51.486;7.144;2023-08-24T09:27:44;26.90;98.30
31733;DHT22;18312;51.486;7.144;2023-08-24T09:30:11;26.90;96.70
31733;DHT22;18312;51.486;7.144;2023-08-24T09:32:40;27.00;97.20
31733;DHT22;18312;51.486;7.144;2023-08-24T09:35:10;27.20;97.30
31733;DHT22;18312;51.486;7.144;2023-08-24T09:37:37;27.40;95.80
31733;DHT22;18312;51.486;7.144;2023-08-24T09:40:06;28.20;96.10
31733;DHT22;18312;51.486;7.144;2023-08-24T09:42:38;28.30;95.50
31733;DHT22;18312;51.486;7.144;2023-08-24T09:45:08;28.70;94.20
31733;DHT22;18312;51.486;7.144;2023-08-24T09:47:37;29.60;93.70
31733;DHT22;18312;51.486;7.144;2023-08-24T09:50:05;29.90;93.10
31733;DHT22;18312;51.486;7.144;2023-08-24T09:52:33;29.40;92.70
31733;DHT22;18312;51.486;7.144;2023-08-24T09:55:03;29.50;92.50
31733;DHT22;18312;51.486;7.144;2023-08-24T09:57:34;29.10;93.30
31733;DHT22;18312;51.486;7.144;2023-08-24T10:00:04;29.10;93.00
31733;DHT22;18312;51.486;7.144;2023-08-24T10:02:37;28.90;93.30
31733;DHT22;18312;51.486;7.144;2023-08-24T10:05:08;28.40;93.60
31733;DHT22;18312;51.486;7.144;2023-08-24T10:07:37;28.00;93.80
31733;DHT22;18312;51.486;7.144;2023-08-24T10:10:08;27.80;93.60
31733;DHT22;18312;51.486;7.144;2023-08-24T10:12:41;27.60;94.40
31733;DHT22;18312;51.486;7.144;2023-08-24T10:15:10;27.70;94.20
31733;DHT22;18312;51.486;7.144;2023-08-24T10:17:39;27.90;94.00
31733;DHT22;18312;51.486;7.144;2023-08-24T10:20:07;27.70;94.70
31733;DHT22;18312;51.486;7.144;2023-08-24T10:22:37;27.90;94.00
31733;DHT22;18312;51.486;7.144;2023-08-24T10:25:07;27.80;94.00
31733;DHT22;18312;51.486;7.144;2023-08-24T10:27:34;27.90;94.50
31733;DHT22;18312;51.486;7.144;2023-08-24T10:30:02;28.00;94.60
31733;DHT22;18312;51.486;7.144;2023-08-24T10:32:29;28.00;94.00
31733;DHT22;18312;51.486;7.144;2023-08-24T10:34:58;28.00;93.80
31733;DHT22;18312;51.486;7.144;2023-08-24T10:37:25;28.20;93.70
31733;DHT22;18312;51.486;7.144;2023-08-24T10:39:52;28.50;92.90
31733;DHT22;18312;51.486;7.144;2023-08-24T10:42:19;28.80;92.50
31733;DHT22;18312;51.486;7.144;2023-08-24T10:44:48;29.00;93.20
31733;DHT22;18312;51.486;7.144;2023-08-24T10:47:15;28.90;93.70
31733;DHT22;18312;51.486;7.144;2023-08-24T10:49:56;28.90;93.40
31733;DHT22;18312;51.486;7.144;2023-08-24T10:52:26;28.90;93.50
31733;DHT22;18312;51.486;7.144;2023-08-24T10:54:57;29.30;93.70
31733;DHT22;18312;51.486;7.144;2023-08-24T10:57:25;29.70;92.50
31733;DHT22;18312;51.486;7.144;2023-08-24T11:00:07;29.80;91.60
31733;DHT22;18312;51.486;7.144;2023-08-24T11:02:45;29.80;92.40
31733;DHT22;18312;51.486;7.144;2023-08-24T11:05:16;29.80;92.20
31733;DHT22;18312;51.486;7.144;2023-08-24T11:07:52;29.20;92.40
31733;DHT22;18312;51.486;7.144;2023-08-24T11:10:45;29.50;91.40
31733;DHT22;18312;51.486;7.144;2023-08-24T11:13:13;29.40;91.00
31733;DHT22;18312;51.486;7.144;2023-08-24T11:15:42;28.90;92.20
31733;DHT22;18312;51.486;7.144;2023-08-24T11:18:22;29.00;92.10
31733;DHT22;18312;51.486;7.144;2023-08-24T11:20:51;29.00;91.60
31733;DHT22;18312;51.486;7.144;2023-08-24T11:23:21;29.20;91.30
31733;DHT22;18312;51.486;7.144;2023-08-24T11:25:50;29.40;90.90
31733;DHT22;18312;51.486;7.144;2023-08-24T11:28:20;29.70;90.70
31733;DHT22;18312;51.486;7.144;2023-08-24T11:30:47;29.90;90.40
31733;DHT22;18312;51.486;7.144;2023-08-24T11:33:16;30.00;91.00
31733;DHT22;18312;51.486;7.144;2023-08-24T11:35:44;30.00;90.80
31733;DHT22;18312;51.486;7.144;2023-08-24T11:38:12;29.90;90.30
31733;DHT22;18312;51.486;7.144;2023-08-24T11:40:40;29.80;90.60
31733;DHT22;18312;51.486;7.144;2023-08-24T11:43:08;29.70;90.10
31733;DHT22;18312;51.486;7.144;2023-08-24T11:45:35;29.60;90.10
31733;DHT22;18312;51.486;7.144;2023-08-24T11:48:04;29.80;90.00
31733;DHT22;18312;51.486;7.144;2023-08-24T11:50:32;29.80;89.30
31733;DHT22;18312;51.486;7.144;2023-08-24T11:53:00;29.80;90.40
31733;DHT22;18312;51.486;7.144;2023-08-24T11:55:28;29.70;91.60
31733;DHT22;18312;51.486;7.144;2023-08-24T11:57:56;29.40;90.30
31733;DHT22;18312;51.486;7.144;2023-08-24T12:00:23;29.20;91.10
31733;DHT22;18312;51.486;7.144;2023-08-24T12:02:50;29.20;91.20
31733;DHT22;18312;51.486;7.144;2023-08-24T12:05:22;29.10;92.40
31733;DHT22;18312;51.486;7.144;2023-08-24T12:07:49;29.20;90.70
31733;DHT22;18312;51.486;7.144;2023-08-24T12:10:17;29.40;90.60
31733;DHT22;18312;51.486;7.144;2023-08-24T12:12:44;29.40;90.60
31733;DHT22;18312;51.486;7.144;2023-08-24T12:15:19;29.40;90.30
31733;DHT22;18312;51.486;7.144;2023-08-24T12:17:46;29.40;91.20
31733;DHT22;18312;51.486;7.144;2023-08-24T12:20:21;29.40;90.80
31733;DHT22;18312;51.486;7.144;2023-08-24T12:22:52;29.40;90.80
31733;DHT22;18312;51.486;7.144;2023-08-24T12:25:23;29.20;90.60
31733;DHT22;18312;51.486;7.144;2023-08-24T12:27:51;29.20;90.90
31733;DHT22;18312;51.486;7.144;2023-08-24T12:30:20;29.20;91.00
31733;DHT22;18312;51.486;7.144;2023-08-24T12:32:48;29.20;90.50
31733;DHT22;18312;51.486;7.144;2023-08-24T12:35:16;29.10;90.50
31733;DHT22;18312;51.486;7.144;2023-08-24T12:37:44;29.10;90.90
31733;DHT22;18312;51.486;7.144;2023-08-24T12:40:12;28.90;90.90
31733;DHT22;18312;51.486;7.144;2023-08-24T12:42:39;29.00;90.70
31733;DHT22;18312;51.486;7.144;2023-08-24T12:45:07;28.80;91.70
31733;DHT22;18312;51.486;7.144;2023-08-24T12:47:35;28.80;91.00
31733;DHT22;18312;51.486;7.144;2023-08-24T12:50:05;28.80;91.60
31733;DHT22;18312;51.486;7.144;2023-08-24T12:52:32;28.80;91.40
31733;DHT22;18312;51.486;7.144;2023-08-24T12:55:00;28.80;91.90
31733;DHT22;18312;51.486;7.144;2023-08-24T12:57:26;28.50;91.50
31733;DHT22;18312;51.486;7.144;2023-08-24T12:59:53;28.30;94.50
31733;DHT22;18312;51.486;7.144;2023-08-24T13:02:20;28.20;96.20
31733;DHT22;18312;51.486;7.144;2023-08-24T13:04:48;27.70;95.90
31733;DHT22;18312;51.486;7.144;2023-08-24T13:07:15;27.60;98.60
31733;DHT22;18312;51.486;7.144;2023-08-24T13:09:42;27.40;99.50
31733;DHT22;18312;51.486;7.144;2023-08-24T13:12:09;27.20;97.50
31733;DHT22;18312;51.486;7.144;2023-08-24T13:14:35;27.00;97.00
31733;DHT22;18312;51.486;7.144;2023-08-24T13:17:02;26.70;98.80
31733;DHT22;18312;51.486;7.144;2023-08-24T13:19:29;26.70;98.30
31733;DHT22;18312;51.486;7.144;2023-08-24T13:21:57;26.60;99.80
31733;DHT22;18312;51.486;7.144;2023-08-24T13:24:24;26.60;99.10
31733;DHT22;18312;51.486;7.144;2023-08-24T13:26:51;26.50;99.90
31733;DHT22;18312;51.486;7.144;2023-08-24T13:29:17;26.40;99.90
31733;DHT22;18312;51.486;7.144;2023-08-24T13:31:44;26.50;99.10
31733;DHT22;18312;51.486;7.144;2023-08-24T13:34:12;26.90;99.40
31733;DHT22;18312;51.486;7.144;2023-08-24T13:36:39;27.10;99.00
31733;DHT22;18312;51.486;7.144;2023-08-24T13:39:10;27.20;97.80
31733;DHT22;18312;51.486;7.144;2023-08-24T13:41:38;27.30;98.10
31733;DHT22;18312;51.486;7.144;2023-08-24T13:44:05;27.50;97.80
31733;DHT22;18312;51.486;7.144;2023-08-24T13:46:31;27.80;97.40
31733;DHT22;18312;51.486;7.144;2023-08-24T13:48:59;27.80;96.50
31733;DHT22;18312;51.486;7.144;2023-08-24T13:51:26;27.80;96.10
31733;DHT22;18312;51.486;7.144;2023-08-24T13:53:53;27.90;96.20
31733;DHT22;18312;51.486;7.144;2023-08-24T13:56:23;28.00;95.50
31733;DHT22;18312;51.486;7.144;2023-08-24T13:58:49;28.00;96.60
31733;DHT22;18312;51.486;7.144;2023-08-24T14:01:16;28.10;96.50
31733;DHT22;18312;51.486;7.144;2023-08-24T14:03:43;28.00;96.00
31733;DHT22;18312;51.486;7.144;2023-08-24T14:06:10;27.90;95.80
31733;DHT22;18312;51.486;7.144;2023-08-24T14:08:37;27.90;95.60
31733;DHT22;18312;51.486;7.144;2023-08-24T14:11:03;27.80;95.00
31733;DHT22;18312;51.486;7.144;2023-08-24T14:13:32;27.70;95.10
31733;DHT22;18312;51.486;7.144;2023-08-24T14:16:00;27.50;94.50
31733;DHT22;18312;51.486;7.144;2023-08-24T14:18:27;27.70;95.40
31733;DHT22;18312;51.486;7.144;2023-08-24T14:20:54;27.80;94.90
31733;DHT22;18312;51.486;7.144;2023-08-24T14:23:21;27.80;95.50
31733;DHT22;18312;51.486;7.144;2023-08-24T14:25:47;27.70;95.10
31733;DHT22;18312;51.486;7.144;2023-08-24T14:28:19;27.70;95.60
31733;DHT22;18312;51.486;7.144;2023-08-24T14:30:48;27.40;96.30
31733;DHT22;18312;51.486;7.144;2023-08-24T14:33:15;27.30;96.00
31733;DHT22;18312;51.486;7.144;2023-08-24T14:35:50;27.40;96.90
31733;DHT22;18312;51.486;7.144;2023-08-24T14:38:17;27.40;96.80
31733;DHT22;18312;51.486;7.144;2023-08-24T14:40:43;27.20;97.40
31733;DHT22;18312;51.486;7.144;2023-08-24T14:43:10;27.20;97.70
31733;DHT22;18312;51.486;7.144;2023-08-24T14:45:38;27.20;97.80
31733;DHT22;18312;51.486;7.144;2023-08-24T14:48:07;27.20;97.50
31733;DHT22;18312;51.486;7.144;2023-08-24T14:50:33;27.10;97.80
31733;DHT22;18312;51.486;7.144;2023-08-24T14:53:03;27.10;98.10
31733;DHT22;18312;51.486;7.144;2023-08-24T14:55:30;26.90;98.10
31733;DHT22;18312;51.486;7.144;2023-08-24T14:57:57;26.90;98.20
31733;DHT22;18312;51.486;7.144;2023-08-24T15:00:25;26.90;98.30
31733;DHT22;18312;51.486;7.144;2023-08-24T15:02:52;26.90;98.60
31733;DHT22;18312;51.486;7.144;2023-08-24T15:05:20;26.70;98.10
31733;DHT22;18312;51.486;7.144;2023-08-24T15:07:47;26.60;98.40
31733;DHT22;18312;51.486;7.144;2023-08-24T15:10:14;26.60;99.20
31733;DHT22;18312;51.486;7.144;2023-08-24T15:12:42;26.50;98.90
31733;DHT22;18312;51.486;7.144;2023-08-24T15:15:09;26.40;99.20
31733;DHT22;18312;51.486;7.144;2023-08-24T15:17:37;26.10;99.80
31733;DHT22;18312;51.486;7.144;2023-08-24T15:20:05;25.90;99.90
31733;DHT22;18312;51.486;7.144;2023-08-24T15:22:33;25.80;99.90
31733;DHT22;18312;51.486;7.144;2023-08-24T15:25:00;25.70;99.90
31733;DHT22;18312;51.486;7.144;2023-08-24T15:27:28;25.60;99.90
31733;DHT22;18312;51.486;7.144;2023-08-24T15:29:55;25.70;99.90
31733;DHT22;18312;51.486;7.144;2023-08-24T15:32:21;25.50;99.90
31733;DHT22;18312;51.486;7.144;2023-08-24T15:34:48;25.30;99.90